Time;durP1;ratioP1;P1;durP2;ratioP2;P2;SDS_P1;SDS_P2;PMS_P1;PMS_P2;Temp;Humidity;BMP_temperature;BMP_pressure;BME280_temperature;BME280_humidity;BME280_pressure;Samples;Min_cycle;Max_cycle;Signal;HPM_P1;HPM_P2
2021/07/17 00:49:26;;;;;;;;;;;;;;;;;;1035377;28;19921;-87
2021/07/17 00:49:57;;;;;;;;;;;;;;;;;;1030046;28;19906;-87
2021/07/17 00:50:27;;;;;;;;;;;;;;;;;;1030463;28;19973;-89
2021/07/17 00:50:57;;;;;;;;;;;;;;;;;;1022532;29;19941;-89
2021/07/17 00:51:27;;;;;;;;;;;;;;;;;;1026332;29;19910;-89
2021/07/17 00:51:58;;;;;;;;;;;;;;;;;;1026874;29;19966;-88
2021/07/17 00:52:28;;;;;;;;;;;;;;;;;;1027472;29;19913;-87
2021/07/17 00:52:59;;;;;;;;;;;;;;;;;;1027393;29;19907;-90
2021/07/17 00:53:29;;;;;;;;;;;;;;;;;;1032097;28;19917;-89
2021/07/17 00:53:59;;;;;;;;;;;;;;;;;;1028872;29;20283;-90
2021/07/17 00:54:30;;;;;;;;;;;;;;;;;;1026727;28;19911;-88
2021/07/17 00:55:00;;;;;;;;;;;;;;;;;;1033506;28;19949;-89
2021/07/17 00:55:30;;;;;;;;;;;;;;;;;;1033200;28;19942;-89
2021/07/17 00:56:01;;;;;;;;;;;;;;;;;;1037171;28;19910;-88
2021/07/17 00:56:31;;;;;;;;;;;;;;;;;;1033034;28;19989;-89
2021/07/17 00:57:01;;;;;;;;;;;;;;;;;;1031053;28;19913;-88
2021/07/17 00:57:32;;;;;;;;;;;;;;;;;;1022810;29;19935;-89
2021/07/17 00:58:03;;;;;;;;;;;;;;;;;;1018539;29;19933;-89
2021/07/17 00:58:33;;;;;;;;;;;;;;;;;;1022201;29;19946;-89
2021/07/17 00:59:03;;;;;;;;;;;;;;;;;;1021908;29;19918;-89
2021/07/17 00:59:34;;;;;;;;;;;;;;;;;;1025797;29;19914;-89
2021/07/17 01:00:04;;;;;;;;;;;;;;;;;;1025866;28;20404;-89
2021/07/17 01:00:34;;;;;;;;;;;;;;;;;;1029460;28;19910;-89
2021/07/17 01:01:04;;;;;;;;;;;;;;;;;;1033409;28;20430;-88
2021/07/17 01:01:35;;;;;;;;;;;;;;;;;;1033694;28;19906;-88
2021/07/17 01:02:05;;;;;;;;;;;;;;;;;;1033303;28;20387;-87
2021/07/17 01:02:35;;;;;;;;;;;;;;;;;;1029608;28;19909;-88
2021/07/17 01:03:05;;;;;;;;;;;;;;;;;;1025494;29;19907;-88
2021/07/17 01:03:36;;;;;;;;;;;;;;;;;;1021783;29;19907;-89
2021/07/17 01:04:06;;;;;;;;;;;;;;;;;;1021689;29;19906;-89
2021/07/17 01:04:36;;;;;;;;;;;;;;;;;;1017720;29;20365;-89
2021/07/17 01:05:06;;;;;;;;;;;;;;;;;;1025470;29;19962;-88
2021/07/17 01:05:37;;;;;;;;;;;;;;;;;;1025545;29;19913;-89
2021/07/17 01:06:07;;;;;;;;;;;;;;;;;;1021716;29;19998;-88
2021/07/17 01:06:37;;;;;;;;;;;;;;;;;;1018002;29;19921;-87
2021/07/17 01:07:08;;;;;;;;;;;;;;;;;;1018259;29;19915;-88
2021/07/17 01:07:39;;;;;;;;;;;;;;;;;;1019006;29;19907;-89
2021/07/17 01:08:09;;;;;;;;;;;;;;;;;;1023616;29;19906;-89
2021/07/17 01:08:39;;;;;;;;;;;;;;;;;;1027883;28;19906;-88
2021/07/17 01:09:10;;;;;;;;;;;;;;;;;;1028094;29;19969;-89
2021/07/17 01:09:40;;;;;;;;;;;;;;;;;;1025132;29;19891;-87
2021/07/17 01:10:10;;;;;;;;;;;;;;;;;;1029549;28;19991;-87
2021/07/17 01:10:42;;;;;;;;;;;;;;;;;;1029912;28;19933;-88
2021/07/17 01:11:12;;;;;;;;;;;;;;;;;;1029915;28;19979;-88
2021/07/17 01:11:42;;;;;;;;;;;;;;;;;;1033811;28;19913;-87
2021/07/17 01:12:12;;;;;;;;;;;;;;;;;;1029868;28;19965;-88
2021/07/17 01:12:43;;;;;;;;;;;;;;;;;;1029549;29;19917;-87
2021/07/17 01:13:13;;;;;;;;;;;;;;;;;;1025620;29;19914;-88
2021/07/17 01:13:43;;;;;;;;;;;;;;;;;;1033435;28;19918;-89
2021/07/17 01:14:14;;;;;;;;;;;;;;;;;;1033426;28;19894;-87
2021/07/17 01:14:44;;;;;;;;;;;;;;;;;;1033785;28;20388;-87
2021/07/17 01:15:14;;;;;;;;;;;;;;;;;;1029357;29;19907;-87
2021/07/17 01:15:44;;;;;;;;;;;;;;;;;;1025671;29;19955;-86
2021/07/17 01:16:15;;;;;;;;;;;;;;;;;;1029770;29;19929;-86
2021/07/17 01:16:45;;;;;;;;;;;;;;;;;;1033596;28;19990;-87
2021/07/17 01:17:15;;;;;;;;;;;;;;;;;;1033830;28;19938;-86
2021/07/17 01:17:45;;;;;;;;;;;;;;;;;;1034014;28;19930;-88
2021/07/17 01:18:16;;;;;;;;;;;;;;;;;;1029955;28;19895;-89
2021/07/17 01:18:46;;;;;;;;;;;;;;;;;;1025491;29;19914;-90
2021/07/17 01:19:16;;;;;;;;;;;;;;;;;;1029695;28;19906;-88
2021/07/17 01:19:47;;;;;;;;;;;;;;;;;;1029717;28;19921;-88
2021/07/17 01:20:17;;;;;;;;;;;;;;;;;;1034103;28;19942;-88
2021/07/17 01:20:48;;;;;;;;;;;;;;;;;;1037951;28;19997;-88
2021/07/17 01:21:18;;;;;;;;;;;;;;;;;;1032894;28;19898;-88
2021/07/17 01:21:48;;;;;;;;;;;;;;;;;;1029545;29;19953;-89
2021/07/17 01:22:19;;;;;;;;;;;;;;;;;;1029784;28;19902;-88
2021/07/17 01:22:49;;;;;;;;;;;;;;;;;;1029929;28;19894;-89
2021/07/17 01:23:19;;;;;;;;;;;;;;;;;;1029724;28;19910;-88
2021/07/17 01:23:50;;;;;;;;;;;;;;;;;;1029715;29;19914;-90
2021/07/17 01:24:20;;;;;;;;;;;;;;;;;;1029832;28;19906;-89
2021/07/17 01:24:50;;;;;;;;;;;;;;;;;;1029814;28;20036;-89
2021/07/17 01:25:20;;;;;;;;;;;;;;;;;;1029102;29;19970;-89
2021/07/17 01:25:51;;;;;;;;;;;;;;;;;;1024733;29;19945;-89
2021/07/17 01:26:21;;;;;;;;;;;;;;;;;;1029500;29;19964;-88
2021/07/17 01:26:51;;;;;;;;;;;;;;;;;;1029676;28;19973;-89
2021/07/17 01:27:21;;;;;;;;;;;;;;;;;;1029545;28;19922;-89
2021/07/17 01:27:52;;;;;;;;;;;;;;;;;;1028879;29;19937;-88
2021/07/17 01:28:22;;;;;;;;;;;;;;;;;;1032006;28;19918;-87
2021/07/17 01:28:52;;;;;;;;;;;;;;;;;;1026536;28;19911;-89
2021/07/17 01:29:22;;;;;;;;;;;;;;;;;;1026268;28;20333;-87
2021/07/17 01:29:53;;;;;;;;;;;;;;;;;;1029882;28;20004;-89
2021/07/17 01:30:23;;;;;;;;;;;;;;;;;;1029652;28;20016;-88
2021/07/17 01:30:53;;;;;;;;;;;;;;;;;;1030001;28;19914;-89
2021/07/17 01:31:24;;;;;;;;;;;;;;;;;;1029489;28;19910;-86
2021/07/17 01:31:54;;;;;;;;;;;;;;;;;;1033498;28;19910;-89
2021/07/17 01:32:24;;;;;;;;;;;;;;;;;;1033926;28;19905;-86
2021/07/17 01:32:55;;;;;;;;;;;;;;;;;;1037942;28;19910;-86
2021/07/17 01:33:25;;;;;;;;;;;;;;;;;;1042292;28;19913;-87
2021/07/17 01:33:55;;;;;;;;;;;;;;;;;;1034499;28;19906;-86
2021/07/17 01:34:25;;;;;;;;;;;;;;;;;;1034616;28;19956;-87
2021/07/17 01:34:57;;;;;;;;;;;;;;;;;;1038896;28;19932;-88
2021/07/17 01:35:27;;;;;;;;;;;;;;;;;;1039669;28;20326;-87
2021/07/17 01:35:57;;;;;;;;;;;;;;;;;;1041027;28;19925;-88
2021/07/17 01:36:27;;;;;;;;;;;;;;;;;;1037998;28;19918;-88
2021/07/17 01:36:58;;;;;;;;;;;;;;;;;;1038021;28;19914;-87
2021/07/17 01:37:28;;;;;;;;;;;;;;;;;;1037794;28;19902;-88
2021/07/17 01:37:58;;;;;;;;;;;;;;;;;;1037827;28;19985;-86
2021/07/17 01:38:28;;;;;;;;;;;;;;;;;;1029748;28;19923;-85
2021/07/17 01:38:59;;;;;;;;;;;;;;;;;;1029793;29;19906;-85
2021/07/17 01:39:29;;;;;;;;;;;;;;;;;;1029027;28;20080;-85
2021/07/17 01:40:03;;;;;;;;;;;;;;;;;;1029712;29;19910;-88
2021/07/17 01:40:34;;;;;;;;;;;;;;;;;;1025895;29;19911;-87
2021/07/17 01:41:05;;;;;;;;;;;;;;;;;;1026463;29;19914;-88
2021/07/17 01:41:35;;;;;;;;;;;;;;;;;;1026607;28;20000;-87
2021/07/17 01:42:05;;;;;;;;;;;;;;;;;;1025947;28;19962;-86
2021/07/17 01:42:35;;;;;;;;;;;;;;;;;;1029843;28;19911;-85
2021/07/17 01:43:06;;;;;;;;;;;;;;;;;;1029735;29;19895;-86
2021/07/17 01:43:36;;;;;;;;;;;;;;;;;;1029837;28;19899;-86
2021/07/17 01:44:06;;;;;;;;;;;;;;;;;;1029660;28;19898;-88
2021/07/17 01:44:36;;;;;;;;;;;;;;;;;;1029762;28;19918;-84
2021/07/17 01:45:07;;;;;;;;;;;;;;;;;;1029860;29;19970;-84
2021/07/17 01:45:38;;;;;;;;;;;;;;;;;;1021761;29;19915;-85
2021/07/17 01:46:09;;;;;;;;;;;;;;;;;;1025372;29;19911;-87
2021/07/17 01:46:39;;;;;;;;;;;;;;;;;;1025730;29;19899;-84
2021/07/17 01:47:09;;;;;;;;;;;;;;;;;;1027476;28;19940;-85
2021/07/17 01:47:39;;;;;;;;;;;;;;;;;;1030459;28;19996;-85
2021/07/17 01:48:10;;;;;;;;;;;;;;;;;;1033573;28;20026;-85
2021/07/17 01:48:40;;;;;;;;;;;;;;;;;;1034481;28;19910;-85
2021/07/17 01:49:10;;;;;;;;;;;;;;;;;;1030786;28;19949;-84
2021/07/17 01:49:40;;;;;;;;;;;;;;;;;;1024275;29;19911;-86
2021/07/17 01:50:11;;;;;;;;;;;;;;;;;;1021578;29;19986;-86
2021/07/17 01:50:41;;;;;;;;;;;;;;;;;;1021150;29;19911;-87
2021/07/17 01:51:11;;;;;;;;;;;;;;;;;;1025291;28;19932;-85
2021/07/17 01:51:42;;;;;;;;;;;;;;;;;;1028063;29;19982;-86
2021/07/17 01:52:12;;;;;;;;;;;;;;;;;;1026962;29;19907;-86
2021/07/17 01:52:42;;;;;;;;;;;;;;;;;;1031707;28;19944;-86
2021/07/17 01:53:12;;;;;;;;;;;;;;;;;;1033019;28;19930;-86
2021/07/17 01:53:43;;;;;;;;;;;;;;;;;;1033585;28;19938;-87
2021/07/17 01:54:13;;;;;;;;;;;;;;;;;;1033635;28;20062;-87
2021/07/17 01:54:43;;;;;;;;;;;;;;;;;;1029798;28;19926;-88
2021/07/17 01:55:13;;;;;;;;;;;;;;;;;;1033489;28;19927;-86
2021/07/17 01:55:44;;;;;;;;;;;;;;;;;;1028329;29;19934;-86
2021/07/17 01:56:14;;;;;;;;;;;;;;;;;;1027351;29;20001;-87
2021/07/17 01:56:44;;;;;;;;;;;;;;;;;;1031080;28;19906;-85
2021/07/17 01:57:14;;;;;;;;;;;;;;;;;;1032128;28;19926;-86
2021/07/17 01:57:45;;;;;;;;;;;;;;;;;;1036406;28;19945;-86
2021/07/17 01:58:15;;;;;;;;;;;;;;;;;;1036138;28;19917;-86
2021/07/17 01:58:45;;;;;;;;;;;;;;;;;;1029241;28;19913;-87
2021/07/17 01:59:15;;;;;;;;;;;;;;;;;;1025631;28;19959;-87
2021/07/17 01:59:46;;;;;;;;;;;;;;;;;;1025606;29;19958;-88
2021/07/17 02:00:16;;;;;;;;;;;;;;;;;;1025693;29;19895;-87
2021/07/17 02:00:47;;;;;;;;;;;;;;;;;;1029647;28;19898;-88
2021/07/17 02:01:17;;;;;;;;;;;;;;;;;;1025862;28;19937;-88
2021/07/17 02:01:47;;;;;;;;;;;;;;;;;;1025902;28;19926;-90
2021/07/17 02:02:19;;;;;;;;;;;;;;;;;;1025798;28;19919;-88
2021/07/17 02:02:49;;;;;;;;;;;;;;;;;;1029585;29;19891;-88
2021/07/17 02:03:19;;;;;;;;;;;;;;;;;;1025361;29;19907;-88
2021/07/17 02:03:50;;;;;;;;;;;;;;;;;;1029396;28;19906;-88
2021/07/17 02:04:20;;;;;;;;;;;;;;;;;;1033581;28;19906;-86
2021/07/17 02:04:50;;;;;;;;;;;;;;;;;;1037576;28;19950;-86
2021/07/17 02:05:20;;;;;;;;;;;;;;;;;;1033059;28;19906;-86
2021/07/17 02:05:51;;;;;;;;;;;;;;;;;;1033170;28;19930;-84
2021/07/17 02:06:21;;;;;;;;;;;;;;;;;;1029011;28;19906;-88
2021/07/17 02:06:51;;;;;;;;;;;;;;;;;;1029310;29;19891;-86
2021/07/17 02:07:21;;;;;;;;;;;;;;;;;;1028948;29;19910;-86
2021/07/17 02:07:52;;;;;;;;;;;;;;;;;;1028758;29;19934;-87
2021/07/17 02:08:22;;;;;;;;;;;;;;;;;;1028230;29;19906;-86
2021/07/17 02:08:52;;;;;;;;;;;;;;;;;;1027665;28;19906;-86
2021/07/17 02:09:22;;;;;;;;;;;;;;;;;;1028659;29;19962;-87
2021/07/17 02:09:53;;;;;;;;;;;;;;;;;;1021771;29;19902;-86
2021/07/17 02:10:23;;;;;;;;;;;;;;;;;;1021702;29;19900;-85
2021/07/17 02:10:53;;;;;;;;;;;;;;;;;;1029652;29;19898;-85
2021/07/17 02:11:24;;;;;;;;;;;;;;;;;;1033683;28;19906;-88
2021/07/17 02:11:54;;;;;;;;;;;;;;;;;;1033278;28;19906;-85
2021/07/17 02:12:24;;;;;;;;;;;;;;;;;;1032896;28;19973;-87
2021/07/17 02:12:54;;;;;;;;;;;;;;;;;;1040862;28;19906;-85
2021/07/17 02:13:25;;;;;;;;;;;;;;;;;;1040480;28;19969;-87
2021/07/17 02:13:55;;;;;;;;;;;;;;;;;;1036805;28;19894;-87
2021/07/17 02:14:25;;;;;;;;;;;;;;;;;;1037504;28;19919;-86
2021/07/17 02:14:56;;;;;;;;;;;;;;;;;;1037484;28;19894;-85
2021/07/17 02:15:26;;;;;;;;;;;;;;;;;;1037565;28;19969;-88
2021/07/17 02:15:57;;;;;;;;;;;;;;;;;;1037441;28;20421;-86
2021/07/17 02:16:28;;;;;;;;;;;;;;;;;;1029463;28;19895;-87
2021/07/17 02:16:58;;;;;;;;;;;;;;;;;;1033632;28;19909;-86
2021/07/17 02:17:28;;;;;;;;;;;;;;;;;;1029875;28;19891;-86
2021/07/17 02:17:59;;;;;;;;;;;;;;;;;;1033755;28;19925;-84
2021/07/17 02:18:32;;;;;;;;;;;;;;;;;;1025873;28;20033;-86
2021/07/17 02:19:03;;;;;;;;;;;;;;;;;;1029680;28;19962;-85
2021/07/17 02:19:35;;;;;;;;;;;;;;;;;;1025731;28;19915;-84
2021/07/17 02:20:05;;;;;;;;;;;;;;;;;;1029362;28;19906;-83
2021/07/17 02:20:36;;;;;;;;;;;;;;;;;;1025672;28;19907;-85
2021/07/17 02:21:06;;;;;;;;;;;;;;;;;;1025852;28;19895;-86
2021/07/17 02:21:36;;;;;;;;;;;;;;;;;;1025882;29;19891;-84
2021/07/17 02:22:07;;;;;;;;;;;;;;;;;;1037671;28;19890;-85
2021/07/17 02:22:38;;;;;;;;;;;;;;;;;;1029846;28;19903;-85
2021/07/17 02:23:08;;;;;;;;;;;;;;;;;;1029850;28;19982;-84
2021/07/17 02:23:40;;;;;;;;;;;;;;;;;;1029828;28;19891;-86
2021/07/17 02:24:10;;;;;;;;;;;;;;;;;;1026028;28;19903;-88
2021/07/17 02:24:41;;;;;;;;;;;;;;;;;;1021877;28;19895;-86
2021/07/17 02:25:12;;;;;;;;;;;;;;;;;;1021921;28;19895;-87
2021/07/17 02:25:43;;;;;;;;;;;;;;;;;;1021736;28;19982;-85
2021/07/17 02:26:15;;;;;;;;;;;;;;;;;;1029667;28;19895;-84
2021/07/17 02:26:46;;;;;;;;;;;;;;;;;;1025729;28;19891;-84
2021/07/17 02:27:16;;;;;;;;;;;;;;;;;;1033789;28;19963;-88
2021/07/17 02:27:46;;;;;;;;;;;;;;;;;;1025808;28;19899;-86
2021/07/17 02:28:17;;;;;;;;;;;;;;;;;;1025843;28;19895;-84
2021/07/17 02:28:47;;;;;;;;;;;;;;;;;;1025604;29;19899;-86
2021/07/17 02:29:18;;;;;;;;;;;;;;;;;;1033357;28;19982;-86
2021/07/17 02:29:48;;;;;;;;;;;;;;;;;;1029484;29;19922;-87
2021/07/17 02:30:18;;;;;;;;;;;;;;;;;;1025673;29;20375;-87
2021/07/17 02:30:49;;;;;;;;;;;;;;;;;;1021846;29;19958;-85
2021/07/17 02:31:20;;;;;;;;;;;;;;;;;;1021690;29;19919;-86
2021/07/17 02:31:50;;;;;;;;;;;;;;;;;;1025662;29;19997;-85
2021/07/17 02:32:21;;;;;;;;;;;;;;;;;;1029761;28;19969;-86
2021/07/17 02:32:51;;;;;;;;;;;;;;;;;;1029424;29;19923;-87
2021/07/17 02:33:21;;;;;;;;;;;;;;;;;;1024114;29;19914;-87
2021/07/17 02:33:52;;;;;;;;;;;;;;;;;;1028653;28;19931;-87
2021/07/17 02:34:22;;;;;;;;;;;;;;;;;;1033225;28;19906;-88
2021/07/17 02:34:53;;;;;;;;;;;;;;;;;;1037575;28;19898;-88
2021/07/17 02:35:23;;;;;;;;;;;;;;;;;;1033740;28;19917;-85
2021/07/17 02:35:53;;;;;;;;;;;;;;;;;;1033532;28;19958;-86
2021/07/17 02:36:24;;;;;;;;;;;;;;;;;;1029791;28;19895;-86
2021/07/17 02:36:54;;;;;;;;;;;;;;;;;;1033629;28;19906;-87
2021/07/17 02:37:25;;;;;;;;;;;;;;;;;;1025791;28;19899;-87
2021/07/17 02:37:57;;;;;;;;;;;;;;;;;;1029974;28;19887;-86
2021/07/17 02:38:30;;;;;;;;;;;;;;;;;;1025774;28;19926;-88
2021/07/17 02:39:05;;;;;;;;;;;;;;;;;;1021578;28;19950;-87
2021/07/17 02:39:37;;;;;;;;;;;;;;;;;;1021840;28;19954;-88
2021/07/17 02:40:12;;;;;;;;;;;;;;;;;;1023486;29;19906;-86
2021/07/17 02:40:45;;;;;;;;;;;;;;;;;;1024637;28;19906;-88
2021/07/17 02:41:16;;;;;;;;;;;;;;;;;;1022376;28;19975;-88
2021/07/17 02:41:46;;;;;;;;;;;;;;;;;;1022589;29;19891;-87
2021/07/17 02:42:17;;;;;;;;;;;;;;;;;;1025535;28;19977;-87
2021/07/17 02:42:47;;;;;;;;;;;;;;;;;;1033657;28;19917;-88
2021/07/17 02:43:19;;;;;;;;;;;;;;;;;;1033570;28;19973;-87
2021/07/17 02:43:49;;;;;;;;;;;;;;;;;;1029788;28;19895;-84
2021/07/17 02:44:20;;;;;;;;;;;;;;;;;;1026065;28;19891;-83
2021/07/17 02:44:51;;;;;;;;;;;;;;;;;;1030172;28;19893;-83
2021/07/17 02:45:22;;;;;;;;;;;;;;;;;;1033673;28;19902;-86
2021/07/17 02:45:52;;;;;;;;;;;;;;;;;;1029671;28;19891;-86
2021/07/17 02:46:22;;;;;;;;;;;;;;;;;;1033687;28;19890;-84
2021/07/17 02:46:54;;;;;;;;;;;;;;;;;;1033441;28;19898;-85
2021/07/17 02:47:24;;;;;;;;;;;;;;;;;;1033729;28;19933;-85
2021/07/17 02:47:54;;;;;;;;;;;;;;;;;;1033456;28;19921;-87
2021/07/17 02:48:25;;;;;;;;;;;;;;;;;;1029294;28;19948;-88
2021/07/17 02:48:55;;;;;;;;;;;;;;;;;;1033070;28;19965;-90
2021/07/17 02:49:25;;;;;;;;;;;;;;;;;;1032937;28;19906;-86
2021/07/17 02:49:56;;;;;;;;;;;;;;;;;;1040294;28;20022;-87
2021/07/17 02:50:26;;;;;;;;;;;;;;;;;;1033601;28;19906;-88
2021/07/17 02:50:56;;;;;;;;;;;;;;;;;;1041287;28;19960;-87
2021/07/17 02:51:26;;;;;;;;;;;;;;;;;;1033591;28;19912;-87
2021/07/17 02:51:57;;;;;;;;;;;;;;;;;;1029422;28;19919;-87
2021/07/17 02:52:27;;;;;;;;;;;;;;;;;;1037612;28;19906;-88
2021/07/17 02:52:57;;;;;;;;;;;;;;;;;;1037462;28;19905;-88
2021/07/17 02:53:28;;;;;;;;;;;;;;;;;;1033481;28;19906;-88
2021/07/17 02:53:58;;;;;;;;;;;;;;;;;;1037502;28;19906;-87
2021/07/17 02:54:29;;;;;;;;;;;;;;;;;;1034562;28;19999;-87
2021/07/17 02:54:59;;;;;;;;;;;;;;;;;;1037606;28;19914;-87
2021/07/17 02:55:30;;;;;;;;;;;;;;;;;;1033645;28;19894;-87
2021/07/17 02:56:01;;;;;;;;;;;;;;;;;;1033715;28;19898;-86
2021/07/17 02:56:31;;;;;;;;;;;;;;;;;;1033604;28;19919;-87
2021/07/17 02:57:02;;;;;;;;;;;;;;;;;;1033652;28;19926;-86
2021/07/17 02:57:33;;;;;;;;;;;;;;;;;;1033600;28;19913;-86
2021/07/17 02:58:04;;;;;;;;;;;;;;;;;;1033743;28;19897;-87
2021/07/17 02:58:34;;;;;;;;;;;;;;;;;;1033529;28;19905;-85
2021/07/17 02:59:05;;;;;;;;;;;;;;;;;;1033700;28;19898;-87
2021/07/17 02:59:35;;;;;;;;;;;;;;;;;;1033603;28;19899;-87
2021/07/17 03:00:05;;;;;;;;;;;;;;;;;;1037785;28;19985;-86
2021/07/17 03:00:37;;;;;;;;;;;;;;;;;;1037701;28;19909;-85
2021/07/17 03:01:07;;;;;;;;;;;;;;;;;;1033595;28;19965;-88
2021/07/17 03:01:38;;;;;;;;;;;;;;;;;;1033721;28;19906;-88
2021/07/17 05:59:14;;;;;;;;;;;;;;;;;;1001302;29;20503;-86
2021/07/17 05:59:44;;;;;;;;;;;;;;;;;;1005868;29;19912;-88
2021/07/17 06:00:19;;;;;;;;;;;;;;;;;;1007091;29;19908;-86
2021/07/17 06:00:49;;;;;;;;;;;;;;;;;;1005295;29;20424;-88
2021/07/17 06:01:19;;;;;;;;;;;;;;;;;;1002496;29;19901;-89
2021/07/17 06:01:50;;;;;;;;;;;;;;;;;;994767;29;19898;-88
2021/07/17 06:02:20;;;;;;;;;;;;;;;;;;993379;29;19910;-89
2021/07/17 06:02:50;;;;;;;;;;;;;;;;;;1001842;29;19973;-86
2021/07/17 06:03:20;;;;;;;;;;;;;;;;;;1005016;29;19905;-86
2021/07/17 06:03:51;;;;;;;;;;;;;;;;;;1002860;29;19964;-85
2021/07/17 06:04:21;;;;;;;;;;;;;;;;;;1020007;29;19946;-86
2021/07/17 06:04:51;;;;;;;;;;;;;;;;;;1022672;29;19907;-88
2021/07/17 06:05:21;;;;;;;;;;;;;;;;;;1027176;29;19914;-84
2021/07/17 06:05:52;;;;;;;;;;;;;;;;;;1011713;29;19908;-85
2021/07/17 06:06:22;;;;;;;;;;;;;;;;;;1012266;29;19904;-88
2021/07/17 06:06:52;;;;;;;;;;;;;;;;;;1023518;29;19907;-87
2021/07/17 06:07:22;;;;;;;;;;;;;;;;;;1022628;29;19907;-87
2021/07/17 06:07:53;;;;;;;;;;;;;;;;;;1030442;28;20372;-88
2021/07/17 06:08:23;;;;;;;;;;;;;;;;;;1030038;28;19945;-87
2021/07/17 06:08:53;;;;;;;;;;;;;;;;;;1030693;28;19906;-88
2021/07/17 06:09:23;;;;;;;;;;;;;;;;;;1026338;29;19915;-88
2021/07/17 06:09:54;;;;;;;;;;;;;;;;;;1026950;28;19969;-87
2021/07/17 06:10:24;;;;;;;;;;;;;;;;;;1022832;29;20361;-87
2021/07/17 06:10:54;;;;;;;;;;;;;;;;;;1026762;28;19907;-88
2021/07/17 06:11:24;;;;;;;;;;;;;;;;;;1015811;29;19911;-87
2021/07/17 06:11:55;;;;;;;;;;;;;;;;;;1028067;28;19891;-86
2021/07/17 06:12:25;;;;;;;;;;;;;;;;;;1028375;29;20001;-88
2021/07/17 06:12:55;;;;;;;;;;;;;;;;;;1023490;29;19907;-86
2021/07/17 06:13:25;;;;;;;;;;;;;;;;;;1024298;29;19946;-87
2021/07/17 06:13:56;;;;;;;;;;;;;;;;;;1021731;29;19908;-85
2021/07/17 06:14:26;;;;;;;;;;;;;;;;;;1021988;29;19907;-86
2021/07/17 06:14:56;;;;;;;;;;;;;;;;;;1017902;29;19963;-88
2021/07/17 06:15:27;;;;;;;;;;;;;;;;;;1025462;28;19914;-87
2021/07/17 06:15:57;;;;;;;;;;;;;;;;;;1021286;29;19983;-86
2021/07/17 06:16:27;;;;;;;;;;;;;;;;;;1024983;29;19915;-88
2021/07/17 06:16:57;;;;;;;;;;;;;;;;;;1025430;29;19891;-89
2021/07/17 06:17:28;;;;;;;;;;;;;;;;;;1029447;28;19895;-89
2021/07/17 06:17:58;;;;;;;;;;;;;;;;;;1029595;28;19906;-91
2021/07/17 06:18:28;;;;;;;;;;;;;;;;;;1021673;29;20309;-89
2021/07/17 06:18:58;;;;;;;;;;;;;;;;;;1021759;29;19895;-90
2021/07/17 06:19:29;;;;;;;;;;;;;;;;;;1025619;29;19934;-90
2021/07/17 06:19:59;;;;;;;;;;;;;;;;;;1019506;29;19907;-89
2021/07/17 06:20:29;;;;;;;;;;;;;;;;;;1019895;29;19903;-85
2021/07/17 06:20:59;;;;;;;;;;;;;;;;;;1023525;29;19974;-88
2021/07/17 06:21:30;;;;;;;;;;;;;;;;;;1019541;29;19919;-88
2021/07/17 06:22:00;;;;;;;;;;;;;;;;;;1027755;29;20392;-87
2021/07/17 06:22:30;;;;;;;;;;;;;;;;;;1023174;29;19907;-88
2021/07/17 06:23:01;;;;;;;;;;;;;;;;;;1023363;29;20005;-88
2021/07/17 06:23:31;;;;;;;;;;;;;;;;;;1019102;29;19911;-87
2021/07/17 06:24:01;;;;;;;;;;;;;;;;;;1022527;29;19991;-88
2021/07/17 06:24:31;;;;;;;;;;;;;;;;;;1027861;29;19918;-89
2021/07/17 06:25:02;;;;;;;;;;;;;;;;;;1027714;28;19917;-87
2021/07/17 06:25:32;;;;;;;;;;;;;;;;;;1024234;29;19910;-88
2021/07/17 06:26:02;;;;;;;;;;;;;;;;;;1019929;29;19923;-88
2021/07/17 06:26:32;;;;;;;;;;;;;;;;;;1019438;29;19951;-88
2021/07/17 06:27:03;;;;;;;;;;;;;;;;;;1023865;29;19911;-88
2021/07/17 06:27:33;;;;;;;;;;;;;;;;;;1018712;29;19919;-84
2021/07/17 06:28:03;;;;;;;;;;;;;;;;;;1017967;29;19967;-85
2021/07/17 06:28:33;;;;;;;;;;;;;;;;;;1026004;29;19920;-85
2021/07/17 06:29:04;;;;;;;;;;;;;;;;;;1025933;29;19918;-85
2021/07/17 06:29:34;;;;;;;;;;;;;;;;;;1021985;29;19918;-86
2021/07/17 06:30:04;;;;;;;;;;;;;;;;;;1018614;29;20360;-84
2021/07/17 06:30:35;;;;;;;;;;;;;;;;;;1022327;29;19907;-85
2021/07/17 06:31:05;;;;;;;;;;;;;;;;;;1022201;29;20014;-83
2021/07/17 06:31:35;;;;;;;;;;;;;;;;;;1026291;29;19911;-87
2021/07/17 06:32:05;;;;;;;;;;;;;;;;;;1022065;29;19939;-86
2021/07/17 06:32:36;;;;;;;;;;;;;;;;;;1026232;29;19985;-85
2021/07/17 06:33:06;;;;;;;;;;;;;;;;;;1026622;28;20305;-85
2021/07/17 06:33:36;;;;;;;;;;;;;;;;;;1022490;29;19906;-85
2021/07/17 06:34:06;;;;;;;;;;;;;;;;;;1022617;29;19911;-85
2021/07/17 06:34:37;;;;;;;;;;;;;;;;;;1022266;29;19914;-87
2021/07/17 06:35:07;;;;;;;;;;;;;;;;;;1014455;29;19916;-86
2021/07/17 06:35:37;;;;;;;;;;;;;;;;;;1022614;29;19918;-84
2021/07/17 06:36:08;;;;;;;;;;;;;;;;;;1023428;29;19998;-85
2021/07/17 06:36:38;;;;;;;;;;;;;;;;;;1025748;29;19930;-86
2021/07/17 06:37:08;;;;;;;;;;;;;;;;;;1021712;29;19899;-84
2021/07/17 06:37:41;;;;;;;;;;;;;;;;;;1021798;29;19915;-85
2021/07/17 06:38:13;;;;;;;;;;;;;;;;;;1024994;28;20131;-88
2021/07/17 06:38:44;;;;;;;;;;;;;;;;;;1025550;28;19934;-89
2021/07/17 06:39:15;;;;;;;;;;;;;;;;;;1029367;28;19907;-86
2021/07/17 06:39:45;;;;;;;;;;;;;;;;;;1021686;29;19899;-87
2021/07/17 06:40:15;;;;;;;;;;;;;;;;;;1025728;28;19922;-88
2021/07/17 06:40:45;;;;;;;;;;;;;;;;;;1025445;28;19984;-87
2021/07/17 06:41:16;;;;;;;;;;;;;;;;;;1028335;29;19910;-86
2021/07/17 06:41:46;;;;;;;;;;;;;;;;;;1021681;29;19896;-87
2021/07/17 06:42:16;;;;;;;;;;;;;;;;;;1021670;29;19941;-86
2021/07/17 06:42:46;;;;;;;;;;;;;;;;;;1024923;29;19911;-85
2021/07/17 06:43:17;;;;;;;;;;;;;;;;;;1021997;29;19922;-84
2021/07/17 06:43:47;;;;;;;;;;;;;;;;;;1022236;29;20357;-86
2021/07/17 06:44:17;;;;;;;;;;;;;;;;;;1022529;29;19942;-85
2021/07/17 06:44:48;;;;;;;;;;;;;;;;;;1027012;28;19954;-85
2021/07/17 06:45:18;;;;;;;;;;;;;;;;;;1023168;29;19911;-85
2021/07/17 06:45:48;;;;;;;;;;;;;;;;;;1018101;29;20301;-86
2021/07/17 06:46:18;;;;;;;;;;;;;;;;;;1018282;29;20001;-86
2021/07/17 06:46:49;;;;;;;;;;;;;;;;;;1018676;29;19911;-84
2021/07/17 06:47:19;;;;;;;;;;;;;;;;;;1024204;29;19911;-85
2021/07/17 06:47:49;;;;;;;;;;;;;;;;;;1021205;29;19939;-85
2021/07/17 06:48:19;;;;;;;;;;;;;;;;;;1025320;29;19895;-85
2021/07/17 06:48:50;;;;;;;;;;;;;;;;;;1029543;28;19895;-86
2021/07/17 06:49:20;;;;;;;;;;;;;;;;;;1029243;29;19921;-84
2021/07/17 06:49:51;;;;;;;;;;;;;;;;;;1023842;29;19911;-84
2021/07/17 06:50:21;;;;;;;;;;;;;;;;;;1023729;29;19983;-85
2021/07/17 06:50:51;;;;;;;;;;;;;;;;;;1027152;28;19970;-87
2021/07/17 06:51:22;;;;;;;;;;;;;;;;;;1030996;28;19910;-86
2021/07/17 06:51:52;;;;;;;;;;;;;;;;;;1036868;28;19906;-88
2021/07/17 06:52:23;;;;;;;;;;;;;;;;;;1033464;28;19898;-88
2021/07/17 06:52:53;;;;;;;;;;;;;;;;;;1033449;28;19901;-88
2021/07/17 06:53:23;;;;;;;;;;;;;;;;;;1029297;28;19958;-87
2021/07/17 06:53:53;;;;;;;;;;;;;;;;;;1033147;28;19906;-87
2021/07/17 06:54:24;;;;;;;;;;;;;;;;;;1029208;29;19981;-87
2021/07/17 06:54:54;;;;;;;;;;;;;;;;;;1025723;28;19902;-87
2021/07/17 06:55:26;;;;;;;;;;;;;;;;;;1021948;29;19936;-87
2021/07/17 06:55:57;;;;;;;;;;;;;;;;;;1029561;29;19925;-88
2021/07/17 06:56:27;;;;;;;;;;;;;;;;;;1025323;29;19910;-88
2021/07/17 06:56:57;;;;;;;;;;;;;;;;;;1024660;29;19899;-87
2021/07/17 06:57:27;;;;;;;;;;;;;;;;;;1020037;29;19911;-88
2021/07/17 06:57:58;;;;;;;;;;;;;;;;;;1019099;29;20309;-87
2021/07/17 06:58:28;;;;;;;;;;;;;;;;;;1018320;29;20029;-85
2021/07/17 06:58:58;;;;;;;;;;;;;;;;;;1018084;29;19968;-87
2021/07/17 06:59:28;;;;;;;;;;;;;;;;;;1018418;29;19911;-86
2021/07/17 06:59:59;;;;;;;;;;;;;;;;;;1028230;29;20284;-86
2021/07/17 07:00:31;;;;;;;;;;;;;;;;;;1025610;28;19988;-87
2021/07/17 07:01:02;;;;;;;;;;;;;;;;;;1017731;29;19915;-87
2021/07/17 07:01:33;;;;;;;;;;;;;;;;;;1019546;29;20366;-87
2021/07/17 07:02:03;;;;;;;;;;;;;;;;;;1015357;29;19911;-86
2021/07/17 07:02:33;;;;;;;;;;;;;;;;;;1022367;29;19911;-85
2021/07/17 07:03:03;;;;;;;;;;;;;;;;;;1026002;28;19910;-85
2021/07/17 07:03:34;;;;;;;;;;;;;;;;;;1025940;29;20012;-86
2021/07/17 07:04:04;;;;;;;;;;;;;;;;;;1018223;29;19918;-83
2021/07/17 07:04:34;;;;;;;;;;;;;;;;;;1024510;29;19911;-85
2021/07/17 07:05:04;;;;;;;;;;;;;;;;;;1023727;29;19911;-86
2021/07/17 07:05:35;;;;;;;;;;;;;;;;;;1023591;29;19998;-85
2021/07/17 07:06:05;;;;;;;;;;;;;;;;;;1023618;29;19918;-83
2021/07/17 07:06:35;;;;;;;;;;;;;;;;;;1023452;29;19918;-87
2021/07/17 07:07:05;;;;;;;;;;;;;;;;;;1015018;29;19911;-84
2021/07/17 07:07:36;;;;;;;;;;;;;;;;;;1018985;29;20023;-85
2021/07/17 07:08:06;;;;;;;;;;;;;;;;;;1019860;29;19911;-86
2021/07/17 07:08:36;;;;;;;;;;;;;;;;;;1015294;29;19967;-87
2021/07/17 07:09:06;;;;;;;;;;;;;;;;;;1019357;29;20006;-84
2021/07/17 07:09:37;;;;;;;;;;;;;;;;;;1022966;29;19911;-84
2021/07/17 07:10:07;;;;;;;;;;;;;;;;;;1026738;29;19942;-87
2021/07/17 07:10:37;;;;;;;;;;;;;;;;;;1029093;29;19951;-86
2021/07/17 07:11:08;;;;;;;;;;;;;;;;;;1025355;29;19899;-86
2021/07/17 07:11:39;;;;;;;;;;;;;;;;;;1029098;29;19911;-85
2021/07/17 07:12:09;;;;;;;;;;;;;;;;;;1027967;28;19919;-83
2021/07/17 07:12:40;;;;;;;;;;;;;;;;;;1022988;29;19911;-85
2021/07/17 07:13:10;;;;;;;;;;;;;;;;;;1026179;28;19985;-86
2021/07/17 07:13:40;;;;;;;;;;;;;;;;;;1021795;29;19997;-84
2021/07/17 07:14:10;;;;;;;;;;;;;;;;;;1021920;29;20054;-88